Time;durP1;ratioP1;P1;durP2;ratioP2;P2;SDS_P1;SDS_P2;PMS_P1;PMS_P2;Temp;Humidity;BMP_temperature;BMP_pressure;BME280_temperature;BME280_humidity;BME280_pressure;Samples;Min_cycle;Max_cycle;Signal;HPM_P1;HPM_P2
2021/04/03 00:00:28;;;;;;;;;;;;;;;21.62;34.93;102938.38;2517080;34;115721;-60
2021/04/03 00:01:59;;;;;;;;;;;;;;;21.62;34.90;102926.28;2514247;34;115810;-59
2021/04/03 00:03:31;;;;;;;;;;;;;;;21.60;35.05;102918.09;2523505;34;116289;-59
2021/04/03 00:05:03;;;;;;;;;;;;;;;21.62;35.24;102920.66;2516231;34;114803;-59
2021/04/03 00:06:35;;;;;;;;;;;;;;;21.60;35.06;102918.09;2509608;34;115769;-60
2021/04/03 00:08:07;;;;;;;;;;;;;;;21.58;35.26;102920.31;2520265;34;115757;-58
2021/04/03 00:09:41;;;;;;;;;;;;;;;21.57;35.11;102923.44;2517622;34;116185;-58
2021/04/03 00:11:13;;;;;;;;;;;;;;;21.59;35.15;102927.66;2516352;34;115757;-60
2021/04/03 00:12:44;;;;;;;;;;;;;;;21.58;35.19;102922.28;2523992;34;115601;-58
2021/04/03 00:14:16;;;;;;;;;;;;;;;21.56;35.61;102913.28;2525870;34;115620;-61
2021/04/03 00:15:47;;;;;;;;;;;;;;;21.54;35.81;102924.78;2527071;34;116375;-58
2021/04/03 00:17:19;;;;;;;;;;;;;;;21.55;35.66;102918.06;2525818;34;115435;-60
2021/04/03 00:18:52;;;;;;;;;;;;;;;21.54;35.46;102913.53;2518982;34;115655;-58
2021/04/03 00:20:24;;;;;;;;;;;;;;;21.54;36.01;102919.16;2523919;34;113623;-58
2021/04/03 00:21:55;;;;;;;;;;;;;;;21.53;36.05;102914.66;2525896;34;113560;-60
2021/04/03 00:23:27;;;;;;;;;;;;;;;21.52;36.08;102918.59;2508718;34;113549;-61
2021/04/03 00:24:59;;;;;;;;;;;;;;;21.52;35.91;102924.22;2511530;34;113647;-59
2021/04/03 00:26:30;;;;;;;;;;;;;;;21.52;36.13;102926.19;2523833;34;113791;-61
2021/04/03 00:28:02;;;;;;;;;;;;;;;21.51;36.24;102927.28;2525763;34;113512;-61
2021/04/03 00:29:35;;;;;;;;;;;;;;;21.52;36.37;102917.75;2526926;34;113601;-61
2021/04/03 00:31:06;;;;;;;;;;;;;;;21.50;36.38;102926.44;2525977;34;113735;-59
2021/04/03 00:32:37;;;;;;;;;;;;;;;21.50;36.25;102931.22;2526854;34;113721;-59
2021/04/03 00:34:09;;;;;;;;;;;;;;;21.50;36.51;102939.66;2525846;34;113478;-61
2021/04/03 00:35:41;;;;;;;;;;;;;;;21.50;36.55;102934.03;2517667;34;113819;-60
2021/04/03 00:37:14;;;;;;;;;;;;;;;21.49;36.82;102927.56;2523045;34;113622;-59
2021/04/03 00:38:45;;;;;;;;;;;;;;;21.49;36.76;102919.13;2526273;34;113649;-61
2021/04/03 00:40:20;;;;;;;;;;;;;;;21.46;36.56;102916.84;2526213;34;113862;-61
2021/04/03 00:41:51;;;;;;;;;;;;;;;21.45;36.70;102931.16;2529126;34;113610;-60
2021/04/03 00:43:23;;;;;;;;;;;;;;;21.45;36.78;102933.97;2517492;34;114900;-61
2021/04/03 00:44:54;;;;;;;;;;;;;;;21.44;37.19;102937.94;2523208;34;113497;-61
2021/04/03 00:46:26;;;;;;;;;;;;;;;21.43;37.22;102937.09;2517547;34;115777;-59
2021/04/03 00:47:57;;;;;;;;;;;;;;;21.43;37.09;102934.25;2523061;34;114982;-61
2021/04/03 00:49:29;;;;;;;;;;;;;;;21.43;36.94;102928.66;2526408;34;115118;-60
2021/04/03 00:51:02;;;;;;;;;;;;;;;21.42;37.28;102915.69;2526061;34;115003;-60
2021/04/03 00:52:34;;;;;;;;;;;;;;;21.42;37.51;102928.91;2526826;34;115159;-58
2021/04/03 00:54:06;;;;;;;;;;;;;;;21.42;37.63;102917.66;2516476;34;115450;-58
2021/04/03 00:55:38;;;;;;;;;;;;;;;21.41;37.27;102928.03;2524083;34;115272;-61
2021/04/03 00:57:10;;;;;;;;;;;;;;;21.40;37.60;102915.09;2526346;34;115016;-60
2021/04/03 00:58:42;;;;;;;;;;;;;;;21.42;37.72;102931.72;2526065;34;115028;-59
2021/04/03 01:00:13;;;;;;;;;;;;;;;21.40;37.40;102926.34;2526180;34;115668;-59
2021/04/03 01:01:45;;;;;;;;;;;;;;;21.36;37.90;102927.13;2516367;34;115057;-61
2021/04/03 01:03:16;;;;;;;;;;;;;;;21.38;37.87;102927.72;2526547;34;113986;-59
2021/04/03 01:04:47;;;;;;;;;;;;;;;21.35;37.55;102917.84;2516061;34;115381;-60
2021/04/03 01:06:19;;;;;;;;;;;;;;;21.40;37.77;102917.06;2523598;34;115588;-59
2021/04/03 01:07:51;;;;;;;;;;;;;;;21.39;37.60;102913.41;2516885;34;115872;-58
2021/04/03 01:09:24;;;;;;;;;;;;;;;21.36;37.90;102916.75;2524018;34;116107;-60
2021/04/03 01:10:57;;;;;;;;;;;;;;;21.36;37.94;102925.19;2525531;34;115225;-58
2021/04/03 01:12:34;;;;;;;;;;;;;;;21.35;37.89;102925.47;2517438;34;114488;-58
2021/04/03 01:14:08;;;;;;;;;;;;;;;21.36;38.03;102925.19;2523432;34;115755;-59
2021/04/03 01:15:43;;;;;;;;;;;;;;;21.34;38.01;102916.19;2526936;34;114473;-60
2021/04/03 01:17:20;;;;;;;;;;;;;;;21.33;37.91;102916.44;2526001;34;115646;-58
2021/04/03 01:18:52;;;;;;;;;;;;;;;21.33;38.29;102910.81;2525772;34;116090;-58
2021/04/03 01:20:27;;;;;;;;;;;;;;;21.33;38.01;102911.66;2526864;34;116275;-58
2021/04/03 01:22:02;;;;;;;;;;;;;;;21.33;37.98;102916.44;2525462;34;115475;-61
2021/04/03 01:23:37;;;;;;;;;;;;;;;21.34;37.95;102909.69;2527299;34;115755;-61
2021/04/03 01:25:12;;;;;;;;;;;;;;;21.32;38.43;102912.78;2511805;34;115763;-60
2021/04/03 01:26:45;;;;;;;;;;;;;;;21.32;38.43;102904.34;2522554;34;113516;-59
2021/04/03 01:28:20;;;;;;;;;;;;;;;21.30;38.25;102910.22;2525512;34;113781;-59
2021/04/03 01:29:54;;;;;;;;;;;;;;;21.29;38.65;102897.28;2527115;34;113539;-58
2021/04/03 01:31:26;;;;;;;;;;;;;;;21.31;38.75;102902.63;2526619;34;113827;-59
2021/04/03 01:33:00;;;;;;;;;;;;;;;21.34;38.53;102906.88;2527222;34;113984;-60
2021/04/03 01:34:33;;;;;;;;;;;;;;;21.31;38.82;102894.19;2526590;34;113652;-60
2021/04/03 01:36:10;;;;;;;;;;;;;;;21.32;39.38;102897.84;2527361;34;113938;-60
2021/04/03 01:37:45;;;;;;;;;;;;;;;21.30;39.42;102906.59;2526383;34;114501;-59
2021/04/03 01:39:18;;;;;;;;;;;;;;;21.29;39.33;102893.63;2517044;34;113661;-60
2021/04/03 01:40:52;;;;;;;;;;;;;;;21.28;39.70;102887.16;2518337;34;113479;-58
2021/04/03 01:42:26;;;;;;;;;;;;;;;21.28;39.86;102887.16;2523644;34;113887;-58
2021/04/03 01:43:58;;;;;;;;;;;;;;;21.29;39.57;102894.47;2509989;34;113796;-60
2021/04/03 01:45:31;;;;;;;;;;;;;;;21.29;40.02;102896.44;2506832;34;113818;-58
2021/04/03 01:47:04;;;;;;;;;;;;;;;21.30;39.85;102900.97;2518456;34;113570;-60
2021/04/03 01:48:36;;;;;;;;;;;;;;;21.29;39.98;102908.53;2508979;34;115166;-59
2021/04/03 01:50:08;;;;;;;;;;;;;;;21.27;40.42;102891.06;2515605;34;114998;-60
2021/04/03 01:51:41;;;;;;;;;;;;;;;21.28;40.46;102892.78;2523694;34;115079;-59
2021/04/03 01:53:13;;;;;;;;;;;;;;;21.27;40.30;102878.97;2526980;34;114998;-60
2021/04/03 01:54:46;;;;;;;;;;;;;;;21.28;40.18;102884.34;2526405;34;115827;-60
2021/04/03 01:56:19;;;;;;;;;;;;;;;21.28;40.34;102881.53;2518227;34;116095;-59
2021/04/03 01:57:51;;;;;;;;;;;;;;;21.26;40.41;102883.75;2517268;34;115121;-58
2021/04/03 01:59:23;;;;;;;;;;;;;;;21.27;40.24;102884.59;2524543;34;115038;-60
2021/04/03 02:02:30;;;;;;;;;;;;;;;21.25;39.90;102884.03;2524093;34;115485;-58
2021/04/03 02:04:01;;;;;;;;;;;;;;;21.23;40.41;102878.66;2526027;34;113886;-60
2021/04/03 02:05:35;;;;;;;;;;;;;;;21.24;40.38;102879.53;2518185;34;115135;-60
2021/04/03 02:07:06;;;;;;;;;;;;;;;21.24;40.24;102876.72;2523846;34;116174;-59
2021/04/03 02:08:38;;;;;;;;;;;;;;;21.23;40.14;102877.81;2521258;34;115141;-59
2021/04/03 02:10:13;;;;;;;;;;;;;;;21.24;40.43;102879.53;2523716;34;116317;-60
2021/04/03 02:11:47;;;;;;;;;;;;;;;21.21;40.48;102869.63;2527536;34;115694;-59
2021/04/03 02:13:18;;;;;;;;;;;;;;;21.23;40.28;102875.00;2526498;34;115673;-59
2021/04/03 02:14:52;;;;;;;;;;;;;;;21.22;39.98;102862.06;2527716;34;115821;-61
2021/04/03 02:16:24;;;;;;;;;;;;;;;21.21;40.27;102868.81;2526642;34;116377;-60
2021/04/03 02:17:56;;;;;;;;;;;;;;;21.21;40.34;102866.00;2527144;34;114643;-60
2021/04/03 02:19:29;;;;;;;;;;;;;;;21.20;40.56;102873.59;2526997;34;115657;-58
2021/04/03 02:21:03;;;;;;;;;;;;;;;21.20;40.46;102862.34;2526387;34;115758;-60
2021/04/03 02:22:35;;;;;;;;;;;;;;;21.18;40.71;102863.72;2527378;34;115877;-60
2021/04/03 02:24:07;;;;;;;;;;;;;;;21.19;40.42;102868.22;2516898;34;116020;-60
2021/04/03 02:25:40;;;;;;;;;;;;;;;21.19;40.45;102860.63;2508972;34;114398;-59
2021/04/03 02:27:12;;;;;;;;;;;;;;;21.17;40.37;102859.19;2521923;34;115503;-59
2021/04/03 02:28:43;;;;;;;;;;;;;;;21.16;40.39;102861.19;2517229;34;115691;-58
2021/04/03 02:30:17;;;;;;;;;;;;;;;21.17;40.50;102856.38;2524287;34;116757;-60
2021/04/03 02:31:49;;;;;;;;;;;;;;;21.17;40.20;102853.56;2519393;34;114765;-60
2021/04/03 02:33:22;;;;;;;;;;;;;;;21.16;40.70;102849.94;2517710;34;113979;-59
2021/04/03 02:34:54;;;;;;;;;;;;;;;21.16;40.64;102854.72;2514085;34;113920;-59
2021/04/03 02:36:41;;;;;;;;;;;;;;;21.17;40.81;102864.81;2515940;34;114158;-59
2021/04/03 02:38:13;;;;;;;;;;;;;;;21.15;40.67;102861.44;2515811;34;114005;-60
2021/04/03 02:39:45;;;;;;;;;;;;;;;21.15;40.81;102864.25;2515175;34;114110;-59
2021/04/03 02:41:19;;;;;;;;;;;;;;;21.14;40.78;102862.53;2523308;34;113628;-58
2021/04/03 02:42:56;;;;;;;;;;;;;;;21.16;40.71;102871.56;2517671;34;113732;-59
2021/04/03 02:44:34;;;;;;;;;;;;;;;21.13;40.68;102866.47;2516424;34;113999;-59
2021/04/03 02:46:11;;;;;;;;;;;;;;;21.14;40.52;102873.78;2525050;34;113602;-59
2021/04/03 02:47:44;;;;;;;;;;;;;;;21.15;40.55;102878.31;2526604;34;113673;-60
2021/04/03 02:49:21;;;;;;;;;;;;;;;21.13;40.91;102872.09;2509235;34;113734;-61
2021/04/03 02:50:54;;;;;;;;;;;;;;;21.12;40.90;102867.56;2522248;34;113606;-59
2021/04/03 02:52:27;;;;;;;;;;;;;;;21.12;41.13;102876.00;2517535;34;114157;-58
2021/04/03 02:53:59;;;;;;;;;;;;;;;21.13;40.58;102877.72;2526837;34;114652;-58
2021/04/03 02:55:31;;;;;;;;;;;;;;;21.10;41.01;102876.25;2527736;34;114987;-60
2021/04/03 02:57:06;;;;;;;;;;;;;;;21.12;40.91;102882.44;2517181;34;115040;-60
2021/04/03 02:58:38;;;;;;;;;;;;;;;21.12;41.18;102887.25;2524181;34;115018;-58
2021/04/03 03:00:09;;;;;;;;;;;;;;;21.11;41.13;102877.09;2527260;34;115391;-59
2021/04/03 03:01:42;;;;;;;;;;;;;;;21.11;41.42;102874.28;2525345;34;114656;-59
2021/04/03 03:03:14;;;;;;;;;;;;;;;21.10;41.25;102865.00;2517461;34;115561;-59
2021/04/03 03:04:48;;;;;;;;;;;;;;;21.11;41.39;102863.91;2523244;34;115052;-59
2021/04/03 03:06:19;;;;;;;;;;;;;;;21.09;40.87;102862.47;2517961;34;115822;-59
2021/04/03 03:07:52;;;;;;;;;;;;;;;21.10;40.95;102865.00;2523223;34;115320;-60
2021/04/03 03:09:25;;;;;;;;;;;;;;;21.10;41.01;102867.81;2526748;34;115244;-59
2021/04/03 03:10:57;;;;;;;;;;;;;;;21.07;40.98;102874.00;2526541;34;114944;-59
2021/04/03 03:12:29;;;;;;;;;;;;;;;21.08;41.07;102867.22;2517921;34;115123;-60
2021/04/03 03:14:02;;;;;;;;;;;;;;;21.09;40.80;102865.28;2514406;34;115787;-59
2021/04/03 03:15:33;;;;;;;;;;;;;;;21.09;41.14;102862.47;2518394;34;115422;-58
2021/04/03 03:17:06;;;;;;;;;;;;;;;21.07;41.00;102868.38;2523012;34;116400;-59
2021/04/03 03:18:39;;;;;;;;;;;;;;;21.06;41.27;102855.41;2517441;34;116134;-60
2021/04/03 03:20:11;;;;;;;;;;;;;;;21.08;41.27;102858.78;2509775;34;116330;-58
2021/04/03 03:21:43;;;;;;;;;;;;;;;21.06;41.23;102854.56;2520246;34;115772;-60
2021/04/03 03:23:15;;;;;;;;;;;;;;;21.06;41.54;102865.81;2526329;34;115644;-60
2021/04/03 03:24:47;;;;;;;;;;;;;;;21.07;41.31;102861.91;2526393;34;115522;-60
2021/04/03 03:26:18;;;;;;;;;;;;;;;21.03;41.20;102855.94;2527248;34;114482;-59
2021/04/03 03:27:50;;;;;;;;;;;;;;;21.04;41.42;102871.69;2516802;34;116647;-58
2021/04/03 03:29:22;;;;;;;;;;;;;;;21.04;41.41;102865.22;2509468;34;115677;-61
2021/04/03 03:30:54;;;;;;;;;;;;;;;21.01;41.61;102862.94;2520222;34;115970;-60
2021/04/03 03:32:25;;;;;;;;;;;;;;;21.04;41.26;102871.69;2509291;34;115898;-59
2021/04/03 03:33:57;;;;;;;;;;;;;;;21.03;41.75;102869.16;2520294;34;115678;-59
2021/04/03 03:35:30;;;;;;;;;;;;;;;21.03;41.69;102871.97;2526964;34;115536;-60
2021/04/03 03:37:01;;;;;;;;;;;;;;;21.00;41.73;102864.91;2519747;34;115757;-59
2021/04/03 03:38:33;;;;;;;;;;;;;;;21.01;41.59;102865.75;2523971;34;113999;-59
2021/04/03 03:40:04;;;;;;;;;;;;;;;21.01;41.39;102862.94;2527310;34;113881;-59
2021/04/03 03:41:36;;;;;;;;;;;;;;;20.99;41.90;102862.34;2516263;34;113754;-60
2021/04/03 03:43:16;;;;;;;;;;;;;;;20.99;41.91;102866.00;2515335;34;113839;-59
2021/04/03 03:44:48;;;;;;;;;;;;;;;20.97;41.96;102873.03;2514972;34;113779;-58
2021/04/03 03:46:20;;;;;;;;;;;;;;;20.98;41.69;102866.28;2515222;34;113797;-58
2021/04/03 03:47:53;;;;;;;;;;;;;;;20.97;41.75;102864.59;2514241;34;114186;-63
2021/04/03 03:49:25;;;;;;;;;;;;;;;20.97;41.49;102867.41;2523880;34;113492;-58
2021/04/03 03:50:56;;;;;;;;;;;;;;;20.95;41.75;102875.22;2516746;34;113828;-60
2021/04/03 03:52:27;;;;;;;;;;;;;;;20.99;41.81;102870.78;2523904;34;113707;-59
2021/04/03 03:53:59;;;;;;;;;;;;;;;20.98;41.61;102867.16;2516397;34;113490;-59
2021/04/03 03:55:30;;;;;;;;;;;;;;;20.94;41.58;102851.91;2517481;34;113979;-58
2021/04/03 03:57:02;;;;;;;;;;;;;;;20.94;41.76;102871.56;2522975;34;113802;-58
2021/04/03 03:58:33;;;;;;;;;;;;;;;20.93;41.98;102864.28;2526834;34;113594;-59
2021/04/03 04:00:05;;;;;;;;;;;;;;;20.92;41.91;102865.38;2529715;34;113737;-58
2021/04/03 04:01:37;;;;;;;;;;;;;;;20.91;42.11;102862.81;2526170;34;114976;-60
2021/04/03 04:03:08;;;;;;;;;;;;;;;20.93;41.83;102867.09;2526439;34;115113;-60
2021/04/03 04:04:39;;;;;;;;;;;;;;;20.92;41.80;102865.38;2525521;34;115104;-58
2021/04/03 04:06:11;;;;;;;;;;;;;;;20.91;41.95;102858.06;2526607;34;114265;-58
2021/04/03 04:07:42;;;;;;;;;;;;;;;20.91;41.71;102854.41;2526033;34;115087;-58
2021/04/03 04:09:13;;;;;;;;;;;;;;;20.93;41.76;102855.84;2527038;34;115131;-58
2021/04/03 04:10:45;;;;;;;;;;;;;;;20.92;41.74;102853.28;2526016;34;115010;-60
2021/04/03 04:12:16;;;;;;;;;;;;;;;20.94;42.01;102868.75;2517757;34;115322;-58
2021/04/03 04:13:48;;;;;;;;;;;;;;;20.91;41.66;102862.81;2522978;34;115149;-58
2021/04/03 04:15:21;;;;;;;;;;;;;;;20.92;41.76;102870.16;2527082;34;115046;-58
2021/04/03 04:16:52;;;;;;;;;;;;;;;20.91;41.71;102879.69;2526098;34;115053;-59
2021/04/03 04:18:24;;;;;;;;;;;;;;;20.91;41.55;102872.09;2526363;34;113884;-58
2021/04/03 04:19:55;;;;;;;;;;;;;;;20.89;41.97;102874.34;2517954;34;114591;-58
2021/04/03 04:21:27;;;;;;;;;;;;;;;20.90;41.52;102875.16;2519898;34;114811;-58
2021/04/03 04:22:58;;;;;;;;;;;;;;;20.89;41.57;102877.16;2514736;34;116367;-59
2021/04/03 04:24:30;;;;;;;;;;;;;;;20.89;41.48;102881.94;2514411;34;115702;-57
2021/04/03 04:26:01;;;;;;;;;;;;;;;20.89;41.84;102873.50;2523700;34;115912;-58
2021/04/03 04:27:33;;;;;;;;;;;;;;;20.90;41.77;102875.16;2516805;34;115643;-59
2021/04/03 04:29:04;;;;;;;;;;;;;;;20.87;41.91;102876.56;2517775;34;115666;-59
2021/04/03 04:30:35;;;;;;;;;;;;;;;20.86;41.94;102884.13;2522780;34;115906;-59
2021/04/03 04:32:07;;;;;;;;;;;;;;;20.85;42.10;102885.25;2526886;34;115674;-59
2021/04/03 04:33:38;;;;;;;;;;;;;;;20.88;41.74;102880.22;2516760;34;115837;-58
2021/04/03 04:35:12;;;;;;;;;;;;;;;20.86;41.58;102883.28;2523890;34;116071;-59
2021/04/03 04:36:43;;;;;;;;;;;;;;;20.87;42.08;102876.56;2516184;34;114886;-59
2021/04/03 04:38:14;;;;;;;;;;;;;;;20.83;42.19;102879.06;2523443;34;114620;-59
2021/04/03 04:39:45;;;;;;;;;;;;;;;20.85;42.10;102887.19;2526038;34;115632;-59
2021/04/03 04:41:17;;;;;;;;;;;;;;;20.85;41.78;102892.81;2527370;34;115733;-58
2021/04/03 04:42:50;;;;;;;;;;;;;;;20.84;41.72;102896.78;2528838;34;116148;-59
2021/04/03 04:44:22;;;;;;;;;;;;;;;20.85;41.99;102896.47;2526607;34;113692;-59
2021/04/03 04:45:53;;;;;;;;;;;;;;;20.85;41.65;102898.44;2525928;34;113783;-58
2021/04/03 04:47:25;;;;;;;;;;;;;;;20.84;41.81;102906.06;2526970;34;113816;-59
2021/04/03 04:48:56;;;;;;;;;;;;;;;20.83;41.85;102900.69;2516130;34;113816;-60
2021/04/03 04:50:30;;;;;;;;;;;;;;;20.83;42.07;102901.53;2524182;34;113710;-58
2021/04/03 04:52:01;;;;;;;;;;;;;;;20.81;42.20;102898.13;2516716;34;113994;-58
2021/04/03 04:53:32;;;;;;;;;;;;;;;20.81;41.86;102903.75;2523762;34;113796;-58
2021/04/03 04:55:06;;;;;;;;;;;;;;;20.83;41.64;102909.13;2516533;34;113882;-60
2021/04/03 04:56:41;;;;;;;;;;;;;;;20.81;41.91;102900.94;2523263;34;113853;-59
2021/04/03 04:58:13;;;;;;;;;;;;;;;20.80;41.66;102896.41;2516191;34;114792;-60
2021/04/03 04:59:44;;;;;;;;;;;;;;;20.78;42.01;102900.63;2516735;34;113843;-60
2021/04/03 05:01:16;;;;;;;;;;;;;;;20.81;42.20;102902.91;2523674;34;113607;-59
2021/04/03 05:02:48;;;;;;;;;;;;;;;20.79;42.18;102897.56;2525882;34;113843;-59
2021/04/03 05:04:20;;;;;;;;;;;;;;;20.78;42.17;102895.00;2529120;34;113654;-60
2021/04/03 05:05:51;;;;;;;;;;;;;;;20.81;41.80;102903.75;2516308;34;115060;-58
2021/04/03 05:07:23;;;;;;;;;;;;;;;20.78;41.92;102903.44;2523594;34;115393;-59
2021/04/03 05:08:54;;;;;;;;;;;;;;;20.78;41.83;102906.25;2516393;34;114373;-59
2021/04/03 05:10:26;;;;;;;;;;;;;;;20.74;42.21;102908.72;2523270;34;114074;-59
2021/04/03 05:11:58;;;;;;;;;;;;;;;20.76;42.11;102905.63;2525984;34;114933;-58
2021/04/03 05:13:29;;;;;;;;;;;;;;;20.74;42.33;102899.44;2526328;34;114024;-59
2021/04/03 05:15:01;;;;;;;;;;;;;;;20.73;42.36;102898.59;2525683;34;115184;-62
2021/04/03 05:16:32;;;;;;;;;;;;;;;20.74;41.99;102891.88;2526934;34;115528;-61
2021/04/03 05:18:04;;;;;;;;;;;;;;;20.73;42.15;102883.69;2526012;34;115014;-59
2021/04/03 05:19:35;;;;;;;;;;;;;;;20.75;41.82;102907.63;2516506;34;116325;-58
2021/04/03 05:21:06;;;;;;;;;;;;;;;20.75;42.10;102906.78;2523636;34;115085;-60
2021/04/03 05:22:38;;;;;;;;;;;;;;;20.75;42.14;102901.16;2516457;34;115527;-59
2021/04/03 05:24:09;;;;;;;;;;;;;;;20.73;41.88;102897.75;2523554;34;115133;-61
2021/04/03 05:25:41;;;;;;;;;;;;;;;20.73;41.55;102904.22;2529139;34;114993;-61
2021/04/03 05:27:13;;;;;;;;;;;;;;;20.72;41.95;102901.66;2526623;34;115838;-59
2021/04/03 05:28:44;;;;;;;;;;;;;;;20.71;41.60;102914.03;2526028;34;116405;-58
2021/04/03 05:30:16;;;;;;;;;;;;;;;20.72;41.77;102915.72;2527171;34;115724;-61
2021/04/03 05:31:47;;;;;;;;;;;;;;;20.72;41.56;102915.72;2525817;34;116317;-58
2021/04/03 05:33:18;;;;;;;;;;;;;;;20.69;41.94;102914.28;2526425;34;115582;-58
2021/04/03 05:34:50;;;;;;;;;;;;;;;20.70;42.41;102916.00;2516253;34;115645;-58
2021/04/03 05:36:23;;;;;;;;;;;;;;;20.73;42.52;102921.06;2523928;34;116059;-58
2021/04/03 05:37:54;;;;;;;;;;;;;;;20.78;42.46;102923.09;2525656;34;115615;-59
2021/04/03 05:39:25;;;;;;;;;;;;;;;20.79;42.82;102922.00;2525880;34;115564;-59
2021/04/03 05:40:57;;;;;;;;;;;;;;;20.82;42.69;102927.94;2526500;34;114727;-59
2021/04/03 05:42:33;;;;;;;;;;;;;;;20.84;42.72;102925.72;2525645;34;115617;-59
2021/04/03 05:44:08;;;;;;;;;;;;;;;20.89;42.63;102932.50;2517744;34;115815;-60
2021/04/03 05:45:42;;;;;;;;;;;;;;;20.91;42.54;102928.31;2516620;34;114419;-59
2021/04/03 05:47:14;;;;;;;;;;;;;;;20.94;42.60;102930.59;2524054;34;115843;-60
2021/04/03 05:48:47;;;;;;;;;;;;;;;20.97;42.70;102935.69;2518887;34;115521;-59
2021/04/03 05:50:19;;;;;;;;;;;;;;;21.02;42.78;102940.53;2524339;34;114009;-59
2021/04/03 05:51:52;;;;;;;;;;;;;;;21.06;42.32;102930.47;2525657;34;113703;-59
2021/04/03 05:53:23;;;;;;;;;;;;;;;21.10;42.63;102940.06;2526483;34;113729;-59
2021/04/03 05:54:56;;;;;;;;;;;;;;;21.14;42.39;102942.09;2516110;34;113891;-58
2021/04/03 05:56:28;;;;;;;;;;;;;;;21.19;42.36;102949.75;2514814;34;113922;-59
2021/04/03 05:58:01;;;;;;;;;;;;;;;21.23;42.55;102948.94;2513898;34;113655;-59
2021/04/03 05:59:33;;;;;;;;;;;;;;;21.28;42.34;102956.59;2514385;34;114048;-58
2021/04/03 06:01:05;;;;;;;;;;;;;;;21.34;42.03;102954.69;2515104;34;114268;-59
2021/04/03 06:02:37;;;;;;;;;;;;;;;21.38;41.92;102950.22;2522530;34;113659;-57
2021/04/03 06:04:09;;;;;;;;;;;;;;;21.44;42.02;102960.44;2526604;34;113508;-58
2021/04/03 06:05:41;;;;;;;;;;;;;;;21.47;41.60;102955.13;2525312;34;113919;-59
2021/04/03 06:07:13;;;;;;;;;;;;;;;21.52;41.69;102960.78;2517319;34;113664;-59
2021/04/03 06:08:45;;;;;;;;;;;;;;;21.59;41.36;102960.56;2522974;34;113716;-60
2021/04/03 06:10:16;;;;;;;;;;;;;;;21.63;41.71;102956.09;2530399;34;113538;-60
2021/04/03 06:11:51;;;;;;;;;;;;;;;21.68;41.38;102958.97;2526370;34;114358;-60
2021/04/03 06:13:23;;;;;;;;;;;;;;;21.72;41.31;102968.56;2518242;34;115201;-58
2021/04/03 06:14:54;;;;;;;;;;;;;;;21.75;41.12;102965.22;2523488;34;114807;-61
2021/04/03 06:16:29;;;;;;;;;;;;;;;21.81;41.17;102968.91;2527647;34;115064;-60
2021/04/03 06:18:01;;;;;;;;;;;;;;;21.85;41.01;102970.09;2526595;34;115152;-58
2021/04/03 06:19:35;;;;;;;;;;;;;;;21.89;41.27;102971.25;2526502;34;115254;-60
2021/04/03 06:21:07;;;;;;;;;;;;;;;21.94;40.81;102974.16;2518058;34;115261;-60
2021/04/03 06:22:41;;;;;;;;;;;;;;;21.98;40.93;102966.88;2516483;34;114879;-59
2021/04/03 06:24:14;;;;;;;;;;;;;;;22.01;40.90;102975.63;2515409;34;115313;-60
2021/04/03 06:25:49;;;;;;;;;;;;;;;22.06;40.81;102972.00;2523577;34;115885;-58
2021/04/03 06:27:21;;;;;;;;;;;;;;;22.09;40.64;102972.28;2527210;34;115382;-58
2021/04/03 06:28:53;;;;;;;;;;;;;;;22.12;40.50;102966.09;2525800;34;114654;-60
2021/04/03 06:30:28;;;;;;;;;;;;;;;22.18;40.48;102972.63;2527510;34;114451;-58
2021/04/03 06:32:00;;;;;;;;;;;;;;;22.21;40.34;102969.31;2529589;34;114839;-60
2021/04/03 06:33:34;;;;;;;;;;;;;;;22.25;40.18;102978.03;2527399;34;115733;-58
2021/04/03 06:35:06;;;;;;;;;;;;;;;22.29;40.48;102976.38;2525916;34;115614;-60
2021/04/03 06:36:45;;;;;;;;;;;;;;;22.33;40.43;102977.53;2527293;34;115631;-59
2021/04/03 06:38:18;;;;;;;;;;;;;;;22.37;40.36;102985.16;2516553;34;114749;-59
2021/04/03 06:39:53;;;;;;;;;;;;;;;22.40;40.43;102973.34;2523881;34;115991;-61
2021/04/03 06:41:26;;;;;;;;;;;;;;;22.45;40.02;102975.34;2518069;34;115648;-57
2021/04/03 06:42:57;;;;;;;;;;;;;;;22.49;40.08;102971.72;2508121;34;114720;-59
2021/04/03 06:46:23;;;;;;;;;;;;;;;22.54;39.81;102971.75;2526202;34;115720;-58
2021/04/03 06:47:57;;;;;;;;;;;;;;;22.59;39.84;102971.78;2526914;34;115126;-59
2021/04/03 06:49:30;;;;;;;;;;;;;;;22.63;39.69;102987.00;2516805;34;115740;-58
2021/04/03 06:51:02;;;;;;;;;;;;;;;22.68;39.72;102990.97;2524624;34;116085;-60
2021/04/03 06:52:34;;;;;;;;;;;;;;;22.70;39.64;102995.28;2525996;34;115692;-60
2021/04/03 06:54:07;;;;;;;;;;;;;;;22.73;39.67;102991.88;2529683;34;116502;-58
2021/04/03 06:55:39;;;;;;;;;;;;;;;22.78;39.57;102993.88;2517187;34;113871;-59
2021/04/03 06:57:10;;;;;;;;;;;;;;;22.81;39.68;102993.34;2517639;34;113504;-58
2021/04/03 06:58:45;;;;;;;;;;;;;;;22.83;40.11;102991.94;2523072;34;113785;-57
2021/04/03 07:00:18;;;;;;;;;;;;;;;22.88;40.32;102997.63;2516596;34;113533;-58
2021/04/03 07:01:52;;;;;;;;;;;;;;;22.91;39.93;102996.22;2524276;34;113775;-60
2021/04/03 07:03:24;;;;;;;;;;;;;;;22.93;40.00;103002.44;2526228;34;113568;-59
2021/04/03 07:04:57;;;;;;;;;;;;;;;22.96;39.77;103005.53;2527089;34;114198;-59
2021/04/03 07:06:29;;;;;;;;;;;;;;;22.98;39.78;103003.31;2525295;34;113842;-58
2021/04/03 07:08:03;;;;;;;;;;;;;;;23.00;39.61;103005.84;2517694;34;113561;-60
2021/04/03 07:09:35;;;;;;;;;;;;;;;23.01;39.78;103001.91;2516915;34;113853;-59
2021/04/03 07:11:08;;;;;;;;;;;;;;;23.04;39.46;103002.19;2524430;34;113767;-59
2021/04/03 07:12:39;;;;;;;;;;;;;;;23.06;39.59;103013.19;2526369;34;113765;-58
2021/04/03 07:14:11;;;;;;;;;;;;;;;23.10;39.46;103013.50;2527289;34;113635;-59
2021/04/03 07:15:44;;;;;;;;;;;;;;;23.12;39.66;103006.47;2525897;34;113508;-59
2021/04/03 07:17:17;;;;;;;;;;;;;;;23.15;39.37;103013.50;2520696;34;113955;-57
2021/04/03 07:18:49;;;;;;;;;;;;;;;23.19;39.37;103014.66;2523314;34;114972;-58
2021/04/03 07:20:21;;;;;;;;;;;;;;;23.22;39.70;103017.75;2526277;34;116110;-59
2021/04/03 07:21:53;;;;;;;;;;;;;;;23.26;39.76;103006.78;2526943;34;115750;-58
2021/04/03 07:23:24;;;;;;;;;;;;;;;23.29;39.68;103011.88;2516829;34;114983;-58
2021/04/03 07:24:56;;;;;;;;;;;;;;;23.31;39.25;103015.25;2515326;34;115057;-58
2021/04/03 07:26:28;;;;;;;;;;;;;;;23.34;39.42;103011.91;2523516;34;114143;-60
2021/04/03 07:27:59;;;;;;;;;;;;;;;23.35;39.16;103020.06;2517838;34;115728;-59
2021/04/03 07:29:34;;;;;;;;;;;;;;;23.39;39.44;103009.91;2514349;34;115579;-60
2021/04/03 07:31:34;;;;;;;;;;;;;;;23.41;39.54;103006.81;2525615;34;115222;-59
2021/04/03 07:34:41;;;;;;;;;;;;;;;23.47;39.26;103005.75;2525912;34;114654;-59
2021/04/03 07:36:13;;;;;;;;;;;;;;;23.49;39.30;103006.31;2516949;34;113714;-60
2021/04/03 07:37:45;;;;;;;;;;;;;;;23.52;39.35;103007.75;2523726;34;115013;-59
2021/04/03 07:39:20;;;;;;;;;;;;;;;23.55;39.32;103005.19;2511413;34;113959;-60
2021/04/03 07:40:54;;;;;;;;;;;;;;;23.59;39.19;103008.31;2513210;34;115402;-60
2021/04/03 07:42:29;;;;;;;;;;;;;;;23.60;39.28;103008.03;2523896;34;115738;-59
2021/04/03 07:44:03;;;;;;;;;;;;;;;23.62;39.17;103007.75;2527168;34;115666;-60
2021/04/03 07:45:41;;;;;;;;;;;;;;;23.66;39.01;103003.25;2526330;34;115949;-59
2021/04/03 07:47:15;;;;;;;;;;;;;;;23.68;39.15;103009.44;2526858;34;115761;-58
2021/04/03 07:48:47;;;;;;;;;;;;;;;23.69;38.97;103006.34;2516714;34;115632;-58
2021/04/03 07:50:21;;;;;;;;;;;;;;;23.72;38.88;103011.44;2515082;34;115783;-60
2021/04/03 07:51:52;;;;;;;;;;;;;;;23.74;39.11;103008.34;2523548;34;116239;-58
2021/04/03 07:53:27;;;;;;;;;;;;;;;23.76;39.18;103006.91;2527105;34;115938;-59
2021/04/03 07:55:18;;;;;;;;;;;;;;;23.77;38.74;103010.59;2516704;34;115609;-58